createdAt,value
2022-10-06T00:00:37.632Z,16.27
2022-10-06T00:01:37.689Z,16.30
2022-10-06T00:02:37.650Z,16.31
2022-10-06T00:03:37.594Z,16.34
2022-10-06T00:04:37.585Z,16.33
2022-10-06T00:05:37.565Z,16.33
2022-10-06T00:06:37.595Z,16.30
2022-10-06T00:07:37.544Z,16.30
2022-10-06T00:08:37.534Z,16.30
2022-10-06T00:09:37.535Z,16.31
2022-10-06T00:10:37.514Z,16.33
2022-10-06T00:11:37.504Z,16.31
2022-10-06T00:12:37.500Z,16.30
2022-10-06T00:13:37.486Z,16.30
2022-10-06T00:14:37.471Z,16.30
2022-10-06T00:15:37.481Z,16.30
2022-10-06T00:16:37.466Z,16.31
2022-10-06T00:17:37.430Z,16.28
2022-10-06T00:18:37.428Z,16.25
2022-10-06T00:19:37.429Z,16.24
2022-10-06T00:20:37.407Z,16.17
2022-10-06T00:21:37.415Z,16.08
2022-10-06T00:22:37.399Z,16.05
2022-10-06T00:23:37.378Z,16.04
2022-10-06T00:24:37.367Z,16.00
2022-10-06T00:25:37.356Z,15.96
2022-10-06T00:26:37.348Z,15.93
2022-10-06T00:27:37.330Z,15.90
2022-10-06T00:28:37.381Z,15.90
2022-10-06T00:29:37.319Z,15.87
2022-10-06T00:30:37.291Z,15.84
2022-10-06T00:31:37.306Z,15.78
2022-10-06T00:32:37.273Z,15.72
2022-10-06T00:33:37.260Z,15.59
2022-10-06T00:34:37.240Z,15.44
2022-10-06T00:35:37.248Z,15.34
2022-10-06T00:36:37.241Z,15.27
2022-10-06T00:37:37.239Z,15.19
2022-10-06T00:38:37.190Z,15.07
2022-10-06T00:39:37.194Z,14.95
2022-10-06T00:40:37.184Z,14.84
2022-10-06T00:41:37.191Z,14.77
2022-10-06T00:42:37.141Z,14.69
2022-10-06T00:43:37.163Z,14.60
2022-10-06T00:44:37.132Z,14.58
2022-10-06T00:45:37.112Z,14.57
2022-10-06T00:46:37.178Z,14.54
2022-10-06T00:47:37.128Z,14.54
2022-10-06T00:48:37.094Z,14.51
2022-10-06T00:49:37.105Z,14.51
2022-10-06T00:50:37.062Z,14.54
2022-10-06T00:51:37.075Z,14.55
2022-10-06T00:52:37.022Z,14.55
2022-10-06T00:53:37.040Z,14.55
2022-10-06T00:54:37.022Z,14.58
2022-10-06T00:55:37.235Z,14.60
2022-10-06T00:56:37.007Z,14.61
2022-10-06T00:57:36.975Z,14.64
2022-10-06T00:58:36.974Z,14.68
2022-10-06T00:59:36.943Z,14.70
2022-10-06T01:00:36.953Z,14.72
2022-10-06T01:01:36.984Z,14.73
2022-10-06T01:02:36.964Z,14.75
2022-10-06T01:03:36.904Z,14.78
2022-10-06T01:04:36.904Z,14.83
2022-10-06T01:05:36.876Z,14.84
2022-10-06T01:06:36.886Z,14.84
2022-10-06T01:07:36.875Z,14.81
2022-10-06T01:08:36.846Z,14.84
2022-10-06T01:09:36.844Z,14.84
2022-10-06T01:10:36.818Z,14.86
2022-10-06T01:11:36.826Z,14.91
2022-10-06T01:12:36.800Z,14.92
2022-10-06T01:13:36.788Z,14.95
2022-10-06T01:14:36.779Z,14.99
2022-10-06T01:15:37.066Z,14.98
2022-10-06T01:16:36.779Z,14.99
2022-10-06T01:17:36.747Z,14.99
2022-10-06T01:18:36.748Z,14.98
2022-10-06T01:19:36.718Z,14.95
2022-10-06T01:20:36.705Z,14.96
2022-10-06T01:21:36.721Z,14.96
2022-10-06T01:22:36.693Z,14.95
2022-10-06T01:23:36.667Z,14.95
2022-10-06T01:24:36.658Z,14.94
2022-10-06T01:25:36.649Z,14.94
2022-10-06T01:26:36.651Z,14.98
2022-10-06T01:27:36.633Z,14.98
2022-10-06T01:28:36.717Z,15.01
2022-10-06T01:29:36.610Z,15.01
2022-10-06T01:30:36.579Z,15.01
2022-10-06T01:31:36.646Z,15.01
2022-10-06T01:32:36.571Z,15.01
2022-10-06T01:33:36.559Z,15.01
2022-10-06T01:34:36.542Z,15.01
2022-10-06T01:35:36.542Z,15.01
2022-10-06T01:36:36.520Z,15.01
2022-10-06T01:37:36.501Z,14.96
2022-10-06T01:38:36.492Z,14.94
2022-10-06T01:39:36.491Z,14.94
2022-10-06T01:40:36.471Z,14.98
2022-10-06T01:41:36.491Z,14.98
2022-10-06T01:42:36.472Z,15.01
2022-10-06T01:43:36.446Z,15.03
2022-10-06T01:44:36.432Z,15.06
2022-10-06T01:45:36.421Z,15.07
2022-10-06T01:46:36.471Z,15.06
2022-10-06T01:47:36.413Z,15.06
2022-10-06T01:48:36.384Z,15.09
2022-10-06T01:49:36.372Z,15.07
2022-10-06T01:50:36.358Z,15.09
2022-10-06T01:51:36.353Z,15.10
2022-10-06T01:52:36.330Z,15.10
2022-10-06T01:53:36.313Z,15.13
2022-10-06T01:54:36.303Z,15.13
2022-10-06T01:55:36.310Z,15.13
2022-10-06T01:56:36.305Z,15.17
2022-10-06T01:57:36.267Z,15.19
2022-10-06T01:58:36.267Z,15.19
2022-10-06T01:59:36.262Z,15.14
2022-10-06T02:00:36.250Z,15.10
2022-10-06T02:01:36.291Z,15.01
2022-10-06T02:02:36.226Z,15.02
2022-10-06T02:03:36.217Z,15.01
2022-10-06T02:04:36.195Z,14.99
2022-10-06T02:05:36.174Z,14.98
2022-10-06T02:06:36.278Z,14.98
2022-10-06T02:07:36.148Z,14.96
2022-10-06T02:08:36.146Z,14.98
2022-10-06T02:09:36.136Z,14.98
2022-10-06T02:10:36.125Z,14.99
2022-10-06T02:11:36.158Z,14.96
2022-10-06T02:12:36.097Z,14.92
2022-10-06T02:13:36.089Z,14.88
2022-10-06T02:14:36.079Z,14.88
2022-10-06T02:15:36.150Z,14.84
2022-10-06T02:16:36.084Z,14.81
2022-10-06T02:17:36.059Z,14.78
2022-10-06T02:18:36.031Z,14.78
2022-10-06T02:19:36.032Z,14.78
2022-10-06T02:20:36.020Z,14.72
2022-10-06T02:21:36.028Z,14.70
2022-10-06T02:22:35.970Z,14.68
2022-10-06T02:23:35.979Z,14.70
2022-10-06T02:24:35.959Z,14.70
2022-10-06T02:25:35.952Z,14.69
2022-10-06T02:26:35.953Z,14.69
2022-10-06T02:27:35.929Z,14.62
2022-10-06T02:28:35.972Z,14.58
2022-10-06T02:29:35.897Z,14.52
2022-10-06T02:30:35.909Z,14.50
2022-10-06T02:31:35.910Z,14.43
2022-10-06T02:32:35.860Z,14.39
2022-10-06T02:33:35.852Z,14.39
2022-10-06T02:34:35.857Z,14.35
2022-10-06T02:35:35.840Z,14.33
2022-10-06T02:36:35.831Z,14.28
2022-10-06T02:37:35.825Z,14.28
2022-10-06T02:38:35.791Z,14.24
2022-10-06T02:39:35.798Z,14.20
2022-10-06T02:40:35.774Z,14.14
2022-10-06T02:41:35.783Z,14.18
2022-10-06T02:42:35.754Z,14.21
2022-10-06T02:43:35.746Z,14.22
2022-10-06T02:44:35.722Z,14.25
2022-10-06T02:45:35.723Z,14.22
2022-10-06T02:46:35.920Z,14.18
2022-10-06T02:47:35.698Z,14.18
2022-10-06T02:48:35.666Z,14.17
2022-10-06T02:49:35.665Z,14.18
2022-10-06T02:50:35.652Z,14.18
2022-10-06T02:51:35.664Z,14.20
2022-10-06T02:52:35.625Z,14.17
2022-10-06T02:53:35.605Z,14.12
2022-10-06T02:54:35.625Z,14.12
2022-10-06T02:55:35.593Z,14.10
2022-10-06T02:56:35.605Z,14.09
2022-10-06T02:57:35.586Z,14.06
2022-10-06T02:58:35.592Z,14.03
2022-10-06T02:59:35.554Z,14.00
2022-10-06T03:00:35.561Z,14.02
2022-10-06T03:01:35.579Z,14.00
2022-10-06T03:02:35.567Z,14.02
2022-10-06T03:03:35.515Z,14.02
2022-10-06T03:04:35.518Z,13.99
2022-10-06T03:05:35.489Z,13.99
2022-10-06T03:06:35.457Z,13.95
2022-10-06T03:07:35.479Z,13.89
2022-10-06T03:08:35.447Z,13.89
2022-10-06T03:09:35.417Z,13.88
2022-10-06T03:10:35.419Z,13.88
2022-10-06T03:11:35.417Z,13.84
2022-10-06T03:12:35.430Z,13.81
2022-10-06T03:13:35.369Z,13.81
2022-10-06T03:14:35.378Z,13.73
2022-10-06T03:15:35.367Z,13.70
2022-10-06T03:16:35.366Z,13.71
2022-10-06T03:17:35.318Z,13.70
2022-10-06T03:18:35.347Z,13.64
2022-10-06T03:19:35.302Z,13.62
2022-10-06T03:20:35.298Z,13.62
2022-10-06T03:21:35.317Z,13.60
2022-10-06T03:22:35.281Z,13.59
2022-10-06T03:23:35.270Z,13.59
2022-10-06T03:24:35.249Z,13.59
2022-10-06T03:25:35.258Z,13.59
2022-10-06T03:26:35.243Z,13.57
2022-10-06T03:27:35.228Z,13.54
2022-10-06T03:28:35.245Z,13.54
2022-10-06T03:29:35.201Z,13.54
2022-10-06T03:30:35.179Z,13.60
2022-10-06T03:31:35.174Z,13.64
2022-10-06T03:32:35.172Z,13.63
2022-10-06T03:33:35.153Z,13.60
2022-10-06T03:34:35.132Z,13.55
2022-10-06T03:35:35.138Z,13.49
2022-10-06T03:36:35.122Z,13.46
2022-10-06T03:37:35.122Z,13.42
2022-10-06T03:38:35.093Z,13.38
2022-10-06T03:39:35.072Z,13.33
2022-10-06T03:40:35.072Z,13.32
2022-10-06T03:41:35.042Z,13.29
2022-10-06T03:42:35.062Z,13.28
2022-10-06T03:43:35.055Z,13.26
2022-10-06T03:44:35.073Z,13.25
2022-10-06T03:45:35.014Z,13.25
2022-10-06T03:46:35.086Z,13.25
2022-10-06T03:47:35.009Z,13.23
2022-10-06T03:48:34.967Z,13.22
2022-10-06T03:49:34.974Z,13.20
2022-10-06T03:50:34.958Z,13.17
2022-10-06T03:51:34.923Z,13.15
2022-10-06T03:52:34.943Z,13.14
2022-10-06T03:53:34.914Z,13.11
2022-10-06T03:54:34.910Z,13.08
2022-10-06T03:55:34.885Z,13.05
2022-10-06T03:56:34.875Z,13.04
2022-10-06T03:57:34.894Z,12.97
2022-10-06T03:58:34.843Z,12.93
2022-10-06T03:59:34.856Z,12.87
2022-10-06T04:00:34.859Z,12.86
2022-10-06T04:01:34.859Z,12.83
2022-10-06T04:02:34.830Z,12.77
2022-10-06T04:03:34.800Z,12.72
2022-10-06T04:04:34.775Z,12.71
2022-10-06T04:05:34.756Z,12.68
2022-10-06T04:06:34.766Z,12.64
2022-10-06T04:07:34.768Z,12.60
2022-10-06T04:08:34.727Z,12.57
2022-10-06T04:09:34.726Z,12.57
2022-10-06T04:10:34.718Z,12.56
2022-10-06T04:11:34.695Z,12.56
2022-10-06T04:12:34.688Z,12.56
2022-10-06T04:13:34.706Z,12.54
2022-10-06T04:14:34.673Z,12.54
2022-10-06T04:15:34.828Z,12.54
2022-10-06T04:16:34.788Z,12.56
2022-10-06T04:17:34.658Z,12.56
2022-10-06T04:18:34.612Z,12.56
2022-10-06T04:19:34.598Z,12.59
2022-10-06T04:20:34.612Z,12.62
2022-10-06T04:21:34.580Z,12.65
2022-10-06T04:22:34.568Z,12.67
2022-10-06T04:23:34.571Z,12.68
2022-10-06T04:24:34.560Z,12.67
2022-10-06T04:25:34.530Z,12.65
2022-10-06T04:26:34.528Z,12.62
2022-10-06T04:27:34.532Z,12.60
2022-10-06T04:28:34.833Z,12.60
2022-10-06T04:29:34.480Z,12.62
2022-10-06T04:30:34.506Z,12.65
2022-10-06T04:31:34.541Z,12.67
2022-10-06T04:32:34.462Z,12.62
2022-10-06T04:33:34.442Z,12.62
2022-10-06T04:34:34.460Z,12.57
2022-10-06T04:35:34.420Z,12.56
2022-10-06T04:36:34.411Z,12.56
2022-10-06T04:37:34.430Z,12.54
2022-10-06T04:38:34.390Z,12.50
2022-10-06T04:39:34.362Z,12.49
2022-10-06T04:40:34.387Z,12.52
2022-10-06T04:41:34.351Z,12.50
2022-10-06T04:42:35.453Z,12.49
2022-10-06T04:43:34.322Z,12.50
2022-10-06T04:44:34.322Z,12.46
2022-10-06T04:45:34.350Z,12.42
2022-10-06T04:46:43.749Z,12.38
2022-10-06T04:47:35.294Z,12.34
2022-10-06T04:48:34.285Z,12.32
2022-10-06T04:49:34.271Z,12.31
2022-10-06T04:50:34.252Z,12.31
2022-10-06T04:51:34.244Z,12.32
2022-10-06T04:52:34.267Z,12.32
2022-10-06T04:53:34.217Z,12.31
2022-10-06T04:54:34.205Z,12.29
2022-10-06T04:55:34.226Z,12.24
2022-10-06T04:56:34.198Z,12.23
2022-10-06T04:57:34.186Z,12.20
2022-10-06T04:58:34.163Z,12.17
2022-10-06T04:59:34.164Z,12.12
2022-10-06T05:00:34.131Z,12.12
2022-10-06T05:01:34.147Z,12.17
2022-10-06T05:02:34.173Z,12.29
2022-10-06T05:03:34.140Z,12.29
2022-10-06T05:04:34.090Z,12.29
2022-10-06T05:05:34.094Z,12.31
2022-10-06T05:06:34.320Z,12.31
2022-10-06T05:07:34.076Z,12.27
2022-10-06T05:08:34.045Z,12.27
2022-10-06T05:09:34.035Z,12.23
2022-10-06T05:10:34.031Z,12.21
2022-10-06T05:11:34.015Z,12.23
2022-10-06T05:12:34.051Z,12.23
2022-10-06T05:13:34.003Z,12.20
2022-10-06T05:14:33.976Z,12.19
2022-10-06T05:15:33.977Z,12.16
2022-10-06T05:16:34.020Z,12.14
2022-10-06T05:17:33.946Z,12.13
2022-10-06T05:18:33.938Z,12.10
2022-10-06T05:19:33.931Z,12.09
2022-10-06T05:20:33.896Z,12.09
2022-10-06T05:21:33.908Z,12.07
2022-10-06T05:22:33.907Z,12.05
2022-10-06T05:23:34.107Z,12.07
2022-10-06T05:24:33.860Z,12.07
2022-10-06T05:25:33.858Z,12.09
2022-10-06T05:26:33.835Z,12.09
2022-10-06T05:27:33.831Z,12.09
2022-10-06T05:28:34.307Z,12.09
2022-10-06T05:29:33.810Z,12.10
2022-10-06T05:30:33.817Z,12.04
2022-10-06T05:31:33.830Z,12.02
2022-10-06T05:32:36.095Z,11.98
2022-10-06T05:33:33.762Z,11.94
2022-10-06T05:34:33.761Z,11.91
2022-10-06T05:35:33.740Z,11.91
2022-10-06T05:36:33.776Z,11.91
2022-10-06T05:37:33.750Z,11.90
2022-10-06T05:38:33.757Z,11.94
2022-10-06T05:39:33.697Z,11.94
2022-10-06T05:40:33.688Z,11.96
2022-10-06T05:41:33.679Z,12.01
2022-10-06T05:42:33.701Z,12.05
2022-10-06T05:43:33.650Z,12.05
2022-10-06T05:44:33.643Z,12.12
2022-10-06T05:45:33.660Z,12.13
2022-10-06T05:46:33.662Z,12.17
2022-10-06T05:47:33.620Z,12.17
2022-10-06T05:48:33.599Z,12.19
2022-10-06T05:49:33.594Z,12.14
2022-10-06T05:50:33.595Z,12.12
2022-10-06T05:51:33.541Z,12.09
2022-10-06T05:52:33.571Z,12.04
2022-10-06T05:53:33.557Z,12.01
2022-10-06T05:54:33.512Z,11.99
2022-10-06T05:55:33.522Z,12.02
2022-10-06T05:56:33.520Z,12.01
2022-10-06T05:57:33.502Z,12.01
2022-10-06T05:58:33.975Z,12.07
2022-10-06T05:59:33.488Z,12.05
2022-10-06T06:00:33.478Z,12.04
2022-10-06T06:01:33.510Z,12.04
2022-10-06T06:02:33.487Z,12.05
2022-10-06T06:03:33.432Z,12.05
2022-10-06T06:04:33.400Z,12.09
2022-10-06T06:05:33.419Z,12.07
2022-10-06T06:06:33.388Z,12.09
2022-10-06T06:07:33.441Z,12.10
2022-10-06T06:08:33.573Z,12.13
2022-10-06T06:09:33.365Z,12.12
2022-10-06T06:10:33.346Z,12.12
2022-10-06T06:11:33.334Z,12.07
2022-10-06T06:12:33.344Z,12.04
2022-10-06T06:13:33.304Z,12.02
2022-10-06T06:14:33.295Z,11.99
2022-10-06T06:15:33.296Z,11.95
2022-10-06T06:16:33.330Z,11.88
2022-10-06T06:17:33.275Z,11.83
2022-10-06T06:18:33.327Z,11.78
2022-10-06T06:19:33.246Z,11.72
2022-10-06T06:20:33.225Z,11.70
2022-10-06T06:21:33.214Z,11.69
2022-10-06T06:22:33.217Z,11.72
2022-10-06T06:23:33.196Z,11.70
2022-10-06T06:24:33.175Z,11.73
2022-10-06T06:25:33.186Z,11.73
2022-10-06T06:26:33.166Z,11.73
2022-10-06T06:27:33.157Z,11.76
2022-10-06T06:28:33.953Z,11.76
2022-10-06T06:29:33.142Z,11.78
2022-10-06T06:30:33.128Z,11.80
2022-10-06T06:31:33.146Z,11.82
2022-10-06T06:32:33.119Z,11.80
2022-10-06T06:33:33.078Z,11.82
2022-10-06T06:34:33.087Z,11.82
2022-10-06T06:35:33.078Z,11.83
2022-10-06T06:36:33.066Z,11.82
2022-10-06T06:37:33.041Z,11.82
2022-10-06T06:38:33.504Z,11.82
2022-10-06T06:39:33.031Z,11.82
2022-10-06T06:40:33.002Z,11.80
2022-10-06T06:41:32.986Z,11.80
2022-10-06T06:42:33.058Z,11.80
2022-10-06T06:43:33.238Z,11.85
2022-10-06T06:44:32.963Z,11.94
2022-10-06T06:45:32.949Z,11.95
2022-10-06T06:46:33.045Z,11.99
2022-10-06T06:47:32.931Z,12.01
2022-10-06T06:48:33.374Z,12.07
2022-10-06T06:49:32.948Z,12.12
2022-10-06T06:50:32.891Z,12.16
2022-10-06T06:51:32.878Z,12.17
2022-10-06T06:52:32.898Z,12.19
2022-10-06T06:53:32.869Z,12.19
2022-10-06T06:54:32.841Z,12.20
2022-10-06T06:55:32.863Z,12.23
2022-10-06T06:56:32.831Z,12.27
2022-10-06T06:57:32.834Z,12.24
2022-10-06T06:58:33.198Z,12.24
2022-10-06T06:59:32.817Z,12.23
2022-10-06T07:00:36.175Z,12.21
2022-10-06T07:01:32.823Z,12.23
2022-10-06T07:02:32.796Z,12.21
2022-10-06T07:03:55.943Z,12.20
2022-10-06T07:04:33.753Z,12.21
2022-10-06T07:05:32.741Z,12.21
2022-10-06T07:06:32.727Z,12.23
2022-10-06T07:07:32.743Z,12.23
2022-10-06T07:08:33.077Z,12.20
2022-10-06T07:09:32.693Z,12.21
2022-10-06T07:10:32.661Z,12.21
2022-10-06T07:11:32.644Z,12.21
2022-10-06T07:12:32.680Z,12.21
2022-10-06T07:13:32.682Z,12.23
2022-10-06T07:14:32.614Z,12.23
2022-10-06T07:15:32.687Z,12.31
2022-10-06T07:16:32.629Z,12.38
2022-10-06T07:17:32.615Z,12.39
2022-10-06T07:18:33.010Z,12.39
2022-10-06T07:19:32.578Z,12.37
2022-10-06T07:20:32.545Z,12.35
2022-10-06T07:21:32.577Z,12.35
2022-10-06T07:22:32.548Z,12.34
2022-10-06T07:23:32.542Z,12.32
2022-10-06T07:24:32.515Z,12.32
2022-10-06T07:25:32.497Z,12.31
2022-10-06T07:26:32.520Z,12.29
2022-10-06T07:27:32.482Z,12.31
2022-10-06T07:28:32.523Z,12.32
2022-10-06T07:29:32.456Z,12.34
2022-10-06T07:30:34.982Z,12.38
2022-10-06T07:31:32.470Z,12.38
2022-10-06T07:32:32.436Z,12.37
2022-10-06T07:33:32.437Z,12.41
2022-10-06T07:34:32.484Z,12.46
2022-10-06T07:35:32.405Z,12.49
2022-10-06T07:36:32.379Z,12.47
2022-10-06T07:37:32.385Z,12.50
2022-10-06T07:38:32.356Z,12.56
2022-10-06T07:39:32.344Z,12.57
2022-10-06T07:40:32.329Z,12.59
2022-10-06T07:41:32.324Z,12.62
2022-10-06T07:42:32.586Z,12.65
2022-10-06T07:43:32.308Z,12.65
2022-10-06T07:44:32.291Z,12.67
2022-10-06T07:45:32.330Z,12.70
2022-10-06T07:46:32.268Z,12.67
2022-10-06T07:47:32.278Z,12.68
2022-10-06T07:48:32.230Z,12.70
2022-10-06T07:49:32.251Z,12.75
2022-10-06T07:50:32.228Z,12.79
2022-10-06T07:51:32.216Z,12.79
2022-10-06T07:52:32.205Z,12.85
2022-10-06T07:53:32.187Z,12.90
2022-10-06T07:54:32.169Z,12.96
2022-10-06T07:55:32.312Z,13.00
2022-10-06T07:56:32.151Z,13.05
2022-10-06T07:57:32.186Z,13.11
2022-10-06T07:58:32.129Z,13.15
2022-10-06T07:59:32.187Z,13.23
2022-10-06T08:01:32.148Z,13.33
2022-10-06T08:02:35.479Z,13.36
2022-10-06T08:03:32.078Z,13.38
2022-10-06T08:04:32.052Z,13.36
2022-10-06T08:05:32.048Z,13.39
2022-10-06T08:06:32.069Z,13.44
2022-10-06T08:07:32.043Z,13.45
2022-10-06T08:08:32.011Z,13.45
2022-10-06T08:09:32.037Z,13.48
2022-10-06T08:10:32.002Z,13.51
2022-10-06T08:11:31.973Z,13.54
2022-10-06T08:12:32.040Z,13.55
2022-10-06T08:13:31.962Z,13.60
2022-10-06T08:14:31.961Z,13.63
2022-10-06T08:15:31.943Z,13.66
2022-10-06T08:16:32.014Z,13.71
2022-10-06T08:17:31.950Z,13.77
2022-10-06T08:18:45.986Z,13.81
2022-10-06T08:19:32.896Z,13.82
2022-10-06T08:20:31.894Z,13.85
2022-10-06T08:21:31.909Z,13.88
2022-10-06T08:22:31.853Z,13.89
2022-10-06T08:23:31.846Z,13.97
2022-10-06T08:24:48.116Z,13.99
2022-10-06T08:25:32.812Z,14.02
2022-10-06T08:26:31.813Z,14.04
2022-10-06T08:27:31.807Z,14.04
2022-10-06T08:28:31.849Z,14.04
2022-10-06T08:29:31.782Z,14.06
2022-10-06T08:30:31.752Z,14.09
2022-10-06T08:31:31.805Z,14.06
2022-10-06T08:32:31.734Z,14.10
2022-10-06T08:33:31.730Z,14.17
2022-10-06T08:34:31.722Z,14.21
2022-10-06T08:35:31.695Z,14.22
2022-10-06T08:36:32.749Z,14.28
2022-10-06T08:37:31.698Z,14.28
2022-10-06T08:38:31.684Z,14.32
2022-10-06T08:39:31.670Z,14.35
2022-10-06T08:40:31.669Z,14.39
2022-10-06T08:41:31.618Z,14.43
2022-10-06T08:42:31.620Z,14.46
2022-10-06T08:43:31.613Z,14.46
2022-10-06T08:44:31.589Z,14.51
2022-10-06T08:45:35.041Z,14.52
2022-10-06T08:46:32.597Z,14.52
2022-10-06T08:47:31.557Z,14.52
2022-10-06T08:48:31.536Z,14.54
2022-10-06T08:49:31.564Z,14.57
2022-10-06T08:50:31.506Z,14.61
2022-10-06T08:51:31.520Z,14.64
2022-10-06T08:52:31.514Z,14.65
2022-10-06T08:53:31.470Z,14.68
2022-10-06T08:54:31.541Z,14.69
2022-10-06T08:55:31.456Z,14.69
2022-10-06T08:56:31.488Z,14.72
2022-10-06T08:57:31.449Z,14.70
2022-10-06T08:58:33.250Z,14.73
2022-10-06T08:59:31.418Z,14.64
2022-10-06T09:00:31.425Z,14.65
2022-10-06T09:01:31.443Z,14.68
2022-10-06T09:02:31.634Z,14.69
2022-10-06T09:03:31.362Z,14.72
2022-10-06T09:04:31.358Z,14.75
2022-10-06T09:05:31.339Z,14.73
2022-10-06T09:06:31.330Z,14.78
2022-10-06T09:07:31.324Z,14.81
2022-10-06T09:08:31.311Z,14.86
2022-10-06T09:09:31.301Z,14.92
2022-10-06T09:10:31.331Z,14.92
2022-10-06T09:11:31.261Z,14.94
2022-10-06T09:12:31.284Z,14.96
2022-10-06T09:13:31.234Z,14.98
2022-10-06T09:14:31.241Z,14.99
2022-10-06T09:15:31.233Z,15.01
2022-10-06T09:16:31.257Z,15.03
2022-10-06T09:17:31.212Z,15.09
2022-10-06T09:18:49.531Z,15.11
2022-10-06T09:19:33.859Z,15.17
2022-10-06T09:20:31.173Z,15.21
2022-10-06T09:21:31.180Z,15.23
2022-10-06T09:22:31.190Z,15.28
2022-10-06T09:23:31.126Z,15.27
2022-10-06T09:24:31.110Z,15.17
2022-10-06T09:25:31.118Z,15.20
2022-10-06T09:26:31.096Z,15.20
2022-10-06T09:27:31.103Z,15.23
2022-10-06T09:28:31.108Z,15.21
2022-10-06T09:29:31.074Z,15.21
2022-10-06T09:30:31.043Z,15.21
2022-10-06T09:31:31.096Z,15.25
2022-10-06T09:32:31.025Z,15.29
2022-10-06T09:33:31.014Z,15.34
2022-10-06T09:34:30.997Z,15.39
2022-10-06T09:35:30.985Z,15.39
2022-10-06T09:36:30.973Z,15.36
2022-10-06T09:37:30.986Z,15.38
2022-10-06T09:38:30.949Z,15.32
2022-10-06T09:39:30.977Z,15.31
2022-10-06T09:40:30.925Z,15.34
2022-10-06T09:41:30.955Z,15.32
2022-10-06T09:42:30.975Z,15.38
2022-10-06T09:43:30.897Z,15.43
2022-10-06T09:44:30.887Z,15.43
2022-10-06T09:45:30.878Z,15.46
2022-10-06T09:46:30.850Z,15.44
2022-10-06T09:47:30.855Z,15.46
2022-10-06T09:48:30.856Z,15.46
2022-10-06T09:49:30.827Z,15.49
2022-10-06T09:50:30.822Z,15.51
2022-10-06T09:51:30.809Z,15.59
2022-10-06T09:52:30.809Z,15.60
2022-10-06T09:53:34.267Z,15.64
2022-10-06T09:54:31.769Z,15.67
2022-10-06T09:55:30.761Z,15.69
2022-10-06T09:56:30.739Z,15.71
2022-10-06T09:57:30.818Z,15.69
2022-10-06T09:58:30.729Z,15.68
2022-10-06T09:59:30.718Z,15.72
2022-10-06T10:00:30.740Z,15.72
2022-10-06T10:01:30.749Z,15.75
2022-10-06T10:02:30.717Z,15.82
2022-10-06T10:03:30.658Z,15.80
2022-10-06T10:04:30.664Z,15.84
2022-10-06T10:05:30.678Z,15.90
2022-10-06T10:06:30.639Z,15.94
2022-10-06T10:07:30.665Z,15.96
2022-10-06T10:08:30.720Z,16.02
2022-10-06T10:09:30.594Z,16.05
2022-10-06T10:10:30.579Z,16.05
2022-10-06T10:11:30.575Z,16.02
2022-10-06T10:12:30.585Z,16.04
2022-10-06T10:13:30.534Z,16.07
2022-10-06T10:14:30.544Z,16.11
2022-10-06T10:15:30.533Z,16.12
2022-10-06T10:16:30.562Z,16.12
2022-10-06T10:17:30.532Z,16.14
2022-10-06T10:18:30.497Z,16.15
2022-10-06T10:19:30.482Z,16.21
2022-10-06T10:20:30.464Z,16.25
2022-10-06T10:21:30.472Z,16.27
2022-10-06T10:22:30.467Z,16.28
2022-10-06T10:23:32.041Z,16.28
2022-10-06T10:24:30.425Z,16.21
2022-10-06T10:25:30.417Z,16.24
2022-10-06T10:26:30.406Z,16.25
2022-10-06T10:27:30.416Z,16.31
2022-10-06T10:28:30.412Z,16.34
2022-10-06T10:29:32.755Z,16.41
2022-10-06T10:30:30.629Z,16.35
2022-10-06T10:31:30.385Z,16.34
2022-10-06T10:32:30.596Z,16.34
2022-10-06T10:33:30.326Z,16.35
2022-10-06T10:34:30.320Z,16.35
2022-10-06T10:35:30.297Z,16.39
2022-10-06T10:36:30.298Z,16.43
2022-10-06T10:37:30.308Z,16.48
2022-10-06T10:38:30.260Z,16.52
2022-10-06T10:39:30.257Z,16.50
2022-10-06T10:40:30.271Z,16.50
2022-10-06T10:41:30.248Z,16.52
2022-10-06T10:42:30.221Z,16.52
2022-10-06T10:43:30.322Z,16.52
2022-10-06T10:44:30.196Z,16.53
2022-10-06T10:45:30.201Z,16.53
2022-10-06T10:46:30.238Z,16.50
2022-10-06T10:47:30.169Z,16.53
2022-10-06T10:48:30.155Z,16.57
2022-10-06T10:49:30.160Z,16.52
2022-10-06T10:50:30.137Z,16.50
2022-10-06T10:51:30.138Z,16.57
2022-10-06T10:52:30.123Z,16.58
2022-10-06T10:53:30.118Z,16.61
2022-10-06T10:54:30.101Z,16.67
2022-10-06T10:55:30.077Z,16.73
2022-10-06T10:56:30.080Z,16.79
2022-10-06T10:57:30.322Z,16.81
2022-10-06T10:58:30.046Z,16.82
2022-10-06T10:59:30.046Z,16.83
2022-10-06T11:00:30.032Z,16.79
2022-10-06T11:01:30.025Z,16.78
2022-10-06T11:02:30.006Z,16.81
2022-10-06T11:03:30.007Z,16.81
2022-10-06T11:04:29.986Z,16.83
2022-10-06T11:05:29.963Z,16.88
2022-10-06T11:06:29.973Z,16.91
2022-10-06T11:07:29.957Z,16.94
2022-10-06T11:08:29.937Z,16.98
2022-10-06T11:09:29.923Z,17.03
2022-10-06T11:10:29.918Z,17.11
2022-10-06T11:11:29.917Z,17.18
2022-10-06T11:12:29.915Z,17.21
2022-10-06T11:13:29.908Z,17.19
2022-10-06T11:14:29.876Z,17.25
2022-10-06T11:15:29.864Z,17.26
2022-10-06T11:16:29.976Z,17.26
2022-10-06T11:17:29.931Z,17.28
2022-10-06T11:18:29.826Z,17.30
2022-10-06T11:19:29.811Z,17.33
2022-10-06T11:20:29.826Z,17.31
2022-10-06T11:21:29.816Z,17.30
2022-10-06T11:22:29.795Z,17.25
2022-10-06T11:23:29.778Z,17.18
2022-10-06T11:24:29.754Z,17.07
2022-10-06T11:25:32.703Z,17.07
2022-10-06T11:26:30.777Z,16.98
2022-10-06T11:27:29.731Z,17.00
2022-10-06T11:28:29.731Z,17.01
2022-10-06T11:29:29.716Z,17.01
2022-10-06T11:30:29.704Z,17.07
2022-10-06T11:31:29.733Z,17.08
2022-10-06T11:32:29.669Z,17.12
2022-10-06T11:33:29.656Z,17.14
2022-10-06T11:34:29.644Z,17.15
2022-10-06T11:35:29.642Z,17.15
2022-10-06T11:36:29.639Z,17.19
2022-10-06T11:37:29.610Z,17.26
2022-10-06T11:38:29.609Z,17.28
2022-10-06T11:39:29.592Z,17.23
2022-10-06T11:40:29.570Z,17.25
2022-10-06T11:41:29.582Z,17.31
2022-10-06T11:43:29.577Z,17.37
2022-10-06T11:44:29.524Z,17.34
2022-10-06T11:45:29.561Z,17.34
2022-10-06T11:46:31.862Z,17.38
2022-10-06T11:47:35.304Z,17.44
2022-10-06T11:48:30.490Z,17.52
2022-10-06T11:49:29.462Z,17.54
2022-10-06T11:50:29.452Z,17.49
2022-10-06T11:51:29.470Z,17.44
2022-10-06T11:52:29.712Z,17.46
2022-10-06T11:53:29.423Z,17.51
2022-10-06T11:54:29.413Z,17.59
2022-10-06T11:55:29.403Z,17.64
2022-10-06T11:56:29.403Z,17.64
2022-10-06T11:57:31.250Z,17.66
2022-10-06T11:58:42.062Z,17.63
2022-10-06T11:59:30.362Z,17.52
2022-10-06T12:00:29.324Z,17.54
2022-10-06T12:01:29.355Z,17.59
2022-10-06T12:02:29.528Z,17.63
2022-10-06T12:03:29.310Z,17.63
2022-10-06T12:04:29.320Z,17.66
2022-10-06T12:05:55.370Z,17.71
2022-10-06T12:06:30.305Z,17.77
2022-10-06T12:07:29.277Z,17.77
2022-10-06T12:08:29.236Z,17.78
2022-10-06T12:09:29.227Z,17.78
2022-10-06T12:10:29.219Z,17.78
2022-10-06T12:11:29.215Z,17.78
2022-10-06T12:12:29.275Z,17.81
2022-10-06T12:17:30.128Z,17.70
2022-10-06T12:18:29.113Z,17.70
2022-10-06T12:19:29.106Z,17.72
2022-10-06T12:20:29.096Z,17.81
2022-10-06T12:21:29.110Z,17.89
2022-10-06T12:22:29.081Z,17.92
2022-10-06T12:23:29.058Z,17.92
2022-10-06T12:24:29.070Z,17.92
2022-10-06T12:25:29.055Z,17.93
2022-10-06T12:26:29.032Z,17.97
2022-10-06T12:27:29.022Z,18.00
2022-10-06T12:28:29.053Z,18.07
2022-10-06T12:29:29.001Z,18.08
2022-10-06T12:30:29.043Z,18.10
2022-10-06T12:31:29.023Z,18.05
2022-10-06T12:32:28.969Z,18.03
2022-10-06T12:33:28.942Z,18.05
2022-10-06T12:34:28.942Z,18.07
2022-10-06T12:35:28.975Z,18.03
2022-10-06T12:36:28.933Z,18.03
2022-10-06T12:37:28.902Z,18.03
2022-10-06T12:38:28.902Z,18.03
2022-10-06T12:39:28.872Z,18.10
2022-10-06T12:40:28.864Z,18.12
2022-10-06T12:41:28.874Z,18.11
2022-10-06T12:42:28.847Z,18.11
2022-10-06T12:43:28.823Z,18.11
2022-10-06T12:44:28.824Z,18.10
2022-10-06T12:45:28.807Z,18.07
2022-10-06T12:46:28.869Z,18.10
2022-10-06T12:47:28.784Z,18.12
2022-10-06T12:48:28.778Z,18.10
2022-10-06T12:49:28.746Z,18.11
2022-10-06T12:50:28.751Z,18.08
2022-10-06T12:51:28.856Z,18.08
2022-10-06T12:52:28.739Z,18.11
2022-10-06T12:53:28.741Z,18.12
2022-10-06T12:54:28.713Z,18.15
2022-10-06T12:55:28.677Z,18.25
2022-10-06T12:56:28.690Z,18.29
2022-10-06T12:57:28.655Z,18.32
2022-10-06T12:58:28.639Z,18.32